Terminal Aerodrome Forecast
Issued by NWS Twin Cities, MN

Home | Current Version | Previous Version | Text Only | Print | Product List | Glossary Off
Versions: 1 2 3 4 5 6 7 8 9 10 11 12 13 14 15 16

222
FTUS43 KMPX 212152 AAA
TAFSTC
TAF AMD
KSTC 212152Z 2122/2218 27014G21KT 6SM -TSRA SCT008 OVC020CB
      TEMPO 2122/2123 3SM TSRA OVC008CB
     FM212300 21011KT P6SM VCSH BKN025
     FM220100 23010KT P6SM SCT030 BKN090
     FM220900 28009KT P6SM SKC=

USA.gov is the U.S. government's official web portal to all federal, state and local government web resources and services.